KMWL/MWL METAR and TAF weather

Enter ICAO airport designator
Station Type Date Time Source
KMWL METAR 2022/06/25 22:53 UTC NOAA

KMWL 252253Z AUTO 13010G14KT 10SM CLR 39/11 A2989 RMK AO2 SLP104 T03940111


Station Type Date Time Source
KMWL Decoded METAR 2022/06/25 22:53 UTC NOAA

MINERAL WELLS AIRPORT, TX, United States (KMWL) 32-47N 098-04W 284M
Jun 25, 2022 - 06:53 PM EDT / 2022.06.25 2253 UTC
Wind: from the SE (130 degrees) at 12 MPH (10 KT) gusting to 16 MPH (14 KT):0
Visibility: 10 mile(s):0
Sky conditions: clear
Temperature: 102.9 F (39.4 C)
Heat index: 100.4 F (38.0 C):1
Dew Point: 52.0 F (11.1 C)
Relative Humidity: 18%
Pressure (altimeter): 29.89 in. Hg (1012 hPa)
ob: KMWL 252253Z AUTO 13010G14KT 10SM CLR 39/11 A2989 RMK AO2 SLP104 T03940111
cycle: 23

Station Type Date Time Source
KMWL TAF UTC NOAA

Error!

Example: see airport list